Time;durP1;ratioP1;P1;durP2;ratioP2;P2;SDS_P1;SDS_P2;PMS_P1;PMS_P2;Temp;Humidity;BMP_temperature;BMP_pressure;BME280_temperature;BME280_humidity;BME280_pressure;Samples;Min_cycle;Max_cycle;Signal;HPM_P1;HPM_P2
2021/11/19 00:01:46;;;;;;;30.98;16.77;;;12.00;99.90;;;;;;5067147;28;20044;-72
2021/11/19 00:04:12;;;;;;;26.38;16.08;;;12.00;99.90;;;;;;5055273;28;20117;-72
2021/11/19 00:06:38;;;;;;;30.80;16.77;;;12.00;99.90;;;;;;5064756;28;20494;-72
2021/11/19 00:09:06;;;;;;;29.48;17.33;;;12.00;99.90;;;;;;5050778;28;20139;-72
2021/11/19 00:11:35;;;;;;;31.13;16.70;;;12.10;99.90;;;;;;5066912;28;20040;-72
2021/11/19 00:14:03;;;;;;;27.90;15.13;;;12.10;99.90;;;;;;5067430;28;20056;-72
2021/11/19 00:16:29;;;;;;;27.95;15.73;;;12.10;99.90;;;;;;5067006;28;20036;-73
2021/11/19 00:18:56;;;;;;;31.00;15.45;;;12.10;99.90;;;;;;5067384;28;20060;-72
2021/11/19 00:21:24;;;;;;;24.25;14.95;;;12.10;99.90;;;;;;5067134;28;20078;-73
2021/11/19 00:23:51;;;;;;;28.88;14.63;;;12.10;99.90;;;;;;5067514;28;20534;-72
2021/11/19 00:26:19;;;;;;;28.77;14.65;;;12.10;99.90;;;;;;5050373;28;20402;-72
2021/11/19 00:28:45;;;;;;;24.52;14.40;;;12.20;99.90;;;;;;5074184;28;20293;-72
2021/11/19 00:31:12;;;;;;;30.17;14.50;;;12.10;99.90;;;;;;5087074;28;20040;-71
2021/11/19 00:33:39;;;;;;;24.63;14.60;;;12.20;99.90;;;;;;5060238;28;20048;-72
2021/11/19 00:36:08;;;;;;;29.85;14.45;;;12.20;99.90;;;;;;5071277;28;20051;-72
2021/11/19 00:38:38;;;;;;;21.05;13.48;;;12.20;99.90;;;;;;5067670;28;20400;-72
2021/11/19 00:41:06;;;;;;;21.75;13.48;;;12.20;99.90;;;;;;5050779;28;20051;-72
2021/11/19 00:43:32;;;;;;;22.95;14.23;;;12.20;99.90;;;;;;5050870;28;20048;-72
2021/11/19 00:45:59;;;;;;;25.00;14.10;;;12.20;99.90;;;;;;5050505;28;20106;-72
2021/11/19 00:48:27;;;;;;;24.10;13.20;;;12.30;99.90;;;;;;5067174;28;20044;-72
2021/11/19 00:50:58;;;;;;;23.63;13.30;;;12.30;99.90;;;;;;5058333;28;20414;-72
2021/11/19 00:53:24;;;;;;;23.00;12.75;;;12.30;99.90;;;;;;5066880;28;20052;-72
2021/11/19 00:55:50;;;;;;;21.27;13.02;;;12.30;99.90;;;;;;5083428;28;20506;-71
2021/11/19 00:58:17;;;;;;;20.05;12.07;;;12.30;99.90;;;;;;5087475;28;20491;-72
2021/11/19 01:00:50;;;;;;;25.15;13.77;;;12.40;99.90;;;;;;5080242;28;20053;-72
2021/11/19 01:03:17;;;;;;;20.83;12.77;;;12.40;99.90;;;;;;5049872;28;20056;-72
2021/11/19 01:05:45;;;;;;;25.95;12.52;;;12.40;99.90;;;;;;5057325;28;20545;-71
2021/11/19 01:08:10;;;;;;;23.88;12.57;;;12.30;99.90;;;;;;5050024;28;20045;-71
2021/11/19 01:10:39;;;;;;;22.35;12.77;;;12.30;99.90;;;;;;5066024;28;20514;-71
2021/11/19 01:13:06;;;;;;;26.33;13.38;;;12.30;99.90;;;;;;5068764;28;20070;-71
2021/11/19 01:15:45;;;;;;;26.40;13.60;;;12.30;99.90;;;;;;5067351;28;20116;-71
2021/11/19 01:18:36;;;;;;;28.60;12.50;;;12.30;99.90;;;;;;5066625;28;20056;-71
2021/11/19 01:21:11;;;;;;;23.75;13.25;;;12.30;99.90;;;;;;5066065;28;20048;-71
2021/11/19 01:23:37;;;;;;;20.52;11.85;;;12.30;99.90;;;;;;5068857;28;20040;-71
2021/11/19 01:26:13;;;;;;;21.63;12.40;;;12.30;99.90;;;;;;5069992;28;20052;-71
2021/11/19 01:28:40;;;;;;;24.40;11.88;;;12.30;99.90;;;;;;5087116;28;20048;-71
2021/11/19 01:31:13;;;;;;;27.80;12.50;;;12.30;99.90;;;;;;5086219;28;20083;-71
2021/11/19 01:33:40;;;;;;;22.05;11.63;;;12.30;99.90;;;;;;5086604;28;20124;-72
2021/11/19 01:36:06;;;;;;;22.73;11.93;;;12.30;99.90;;;;;;5086750;28;20040;-72
2021/11/19 01:38:32;;;;;;;24.00;11.43;;;12.30;99.90;;;;;;5086398;28;20109;-72
2021/11/19 01:41:02;;;;;;;18.35;10.98;;;12.30;99.90;;;;;;5070159;28;20071;-72
2021/11/19 01:43:30;;;;;;;19.80;11.55;;;12.30;99.90;;;;;;5067788;28;20060;-72
2021/11/19 01:45:58;;;;;;;21.10;11.60;;;12.30;99.90;;;;;;5077721;28;20039;-72
2021/11/19 01:48:29;;;;;;;20.58;10.90;;;12.30;99.90;;;;;;5071888;28;20504;-72
2021/11/19 01:51:00;;;;;;;20.65;11.35;;;12.20;99.90;;;;;;5071643;28;20048;-72
2021/11/19 01:53:52;;;;;;;22.25;11.48;;;12.20;99.90;;;;;;5073275;28;20058;-72
2021/11/19 01:56:46;;;;;;;20.30;11.10;;;12.30;99.90;;;;;;5050142;28;20059;-72
2021/11/19 01:59:38;;;;;;;18.98;11.07;;;12.20;99.90;;;;;;5066130;28;20059;-72
2021/11/19 02:02:17;;;;;;;20.83;11.73;;;12.20;99.90;;;;;;5070193;28;20048;-72
2021/11/19 02:04:52;;;;;;;25.00;11.50;;;12.20;99.90;;;;;;5070633;28;20166;-72
2021/11/19 02:07:25;;;;;;;22.27;11.13;;;12.20;99.90;;;;;;5069914;28;20060;-72
2021/11/19 02:10:13;;;;;;;23.38;11.52;;;12.20;99.90;;;;;;5070119;28;20105;-72
2021/11/19 02:13:07;;;;;;;17.42;10.10;;;12.20;99.90;;;;;;5053970;28;20101;-72
2021/11/19 02:15:40;;;;;;;21.58;10.68;;;12.10;99.90;;;;;;5053772;28;20483;-72
2021/11/19 02:18:20;;;;;;;23.23;11.75;;;12.20;99.90;;;;;;5053180;28;20123;-72
2021/11/19 02:20:50;;;;;;;20.02;11.65;;;12.20;99.90;;;;;;5070266;28;20510;-72
2021/11/19 02:23:24;;;;;;;18.63;10.60;;;12.20;99.90;;;;;;5070111;28;20499;-72
2021/11/19 02:25:55;;;;;;;18.45;10.80;;;12.20;99.90;;;;;;5078432;28;20481;-72
2021/11/19 02:28:25;;;;;;;19.70;10.63;;;12.20;99.90;;;;;;5058416;28;20056;-72
2021/11/19 02:30:56;;;;;;;23.92;10.90;;;12.20;99.90;;;;;;5052448;28;20157;-72
2021/11/19 02:33:25;;;;;;;21.88;12.60;;;12.10;99.90;;;;;;5077576;28;20045;-72
2021/11/19 02:35:58;;;;;;;23.38;11.68;;;12.10;99.90;;;;;;5085438;28;20130;-72
2021/11/19 02:38:30;;;;;;;23.60;12.30;;;12.10;99.90;;;;;;5078399;28;20403;-72
2021/11/19 02:40:56;;;;;;;19.67;11.45;;;12.10;99.90;;;;;;5075850;28;20135;-72
2021/11/19 02:43:40;;;;;;;20.80;11.20;;;12.10;99.90;;;;;;5052899;28;20074;-72
2021/11/19 02:46:06;;;;;;;25.35;11.73;;;12.10;99.90;;;;;;5074313;28;20044;-72
2021/11/19 02:48:34;;;;;;;19.45;11.85;;;12.00;99.90;;;;;;5063162;28;20135;-72
2021/11/19 02:51:05;;;;;;;20.15;12.27;;;12.00;99.90;;;;;;5056753;28;20040;-72
2021/11/19 02:53:31;;;;;;;19.83;12.23;;;12.00;99.90;;;;;;5082381;28;20059;-72
2021/11/19 02:55:58;;;;;;;24.35;12.00;;;12.00;99.90;;;;;;5059270;28;20052;-72
2021/11/19 02:58:33;;;;;;;24.55;12.25;;;12.00;99.90;;;;;;5067541;28;20051;-72
2021/11/19 03:01:21;;;;;;;21.05;12.27;;;12.10;99.90;;;;;;5072826;28;20036;-72
2021/11/19 03:03:52;;;;;;;21.42;12.80;;;12.10;99.90;;;;;;5067818;28;20395;-72
2021/11/19 03:06:18;;;;;;;19.80;12.27;;;12.10;99.90;;;;;;5068674;28;20052;-71
2021/11/19 03:08:44;;;;;;;24.02;13.63;;;12.10;99.90;;;;;;5051494;28;20049;-71
2021/11/19 03:11:13;;;;;;;21.48;12.43;;;12.20;99.90;;;;;;5051569;28;20044;-72
2021/11/19 03:13:41;;;;;;;19.77;11.43;;;12.20;99.90;;;;;;5056309;28;20039;-72
2021/11/19 03:16:07;;;;;;;20.38;11.60;;;12.20;99.90;;;;;;5076290;28;20662;-72
2021/11/19 03:18:35;;;;;;;22.42;12.10;;;12.20;99.90;;;;;;5087034;28;20081;-73
2021/11/19 03:21:04;;;;;;;23.42;12.40;;;12.20;99.90;;;;;;5059828;28;20292;-72
2021/11/19 03:23:34;;;;;;;23.38;12.65;;;12.20;99.90;;;;;;5075074;28;20048;-72
2021/11/19 03:26:03;;;;;;;19.33;11.50;;;12.20;99.90;;;;;;5087335;28;20051;-72
2021/11/19 03:28:29;;;;;;;27.55;11.98;;;12.20;99.90;;;;;;5086704;28;20036;-72
2021/11/19 03:31:00;;;;;;;21.67;12.52;;;12.20;99.90;;;;;;5086778;28;20701;-72
2021/11/19 03:33:33;;;;;;;20.88;12.43;;;12.30;99.90;;;;;;5079759;28;20517;-72
2021/11/19 03:35:59;;;;;;;20.92;12.10;;;12.30;99.90;;;;;;5069882;28;20067;-73
2021/11/19 03:38:27;;;;;;;18.20;11.68;;;12.30;99.90;;;;;;5086300;28;20754;-73
2021/11/19 03:40:55;;;;;;;21.25;12.05;;;12.30;99.90;;;;;;5069165;28;20044;-73
2021/11/19 03:43:30;;;;;;;19.80;11.70;;;12.30;99.90;;;;;;5066600;28;20044;-73
2021/11/19 03:46:02;;;;;;;20.58;11.80;;;12.30;99.90;;;;;;5070288;28;20047;-73
2021/11/19 03:48:29;;;;;;;20.23;11.50;;;12.30;99.90;;;;;;5083458;28;20062;-73
2021/11/19 03:51:00;;;;;;;19.85;11.77;;;12.30;99.90;;;;;;5069542;28;20048;-73
2021/11/19 03:53:27;;;;;;;21.65;12.32;;;12.40;99.90;;;;;;5070317;28;20055;-73
2021/11/19 03:55:56;;;;;;;25.27;12.40;;;12.30;99.90;;;;;;5069842;28;20565;-73
2021/11/19 03:58:28;;;;;;;19.60;12.55;;;12.30;99.90;;;;;;5053304;28;20079;-73
2021/11/19 04:01:11;;;;;;;22.48;12.48;;;12.40;99.90;;;;;;5069329;28;20055;-73
2021/11/19 04:03:38;;;;;;;19.13;12.10;;;12.40;99.90;;;;;;5067036;28;20048;-72
2021/11/19 04:06:04;;;;;;;20.70;12.20;;;12.40;99.90;;;;;;5072070;28;20129;-73
2021/11/19 04:08:30;;;;;;;20.10;12.23;;;12.40;99.90;;;;;;5065343;28;20060;-73
2021/11/19 04:10:56;;;;;;;20.95;12.30;;;12.40;99.90;;;;;;5066622;28;20124;-73
2021/11/19 04:13:22;;;;;;;21.08;12.02;;;12.40;99.90;;;;;;5065690;28;20499;-73
2021/11/19 04:15:55;;;;;;;22.27;12.45;;;12.40;99.90;;;;;;5071569;28;20051;-73
2021/11/19 04:18:22;;;;;;;21.58;12.52;;;12.50;99.90;;;;;;5085867;28;20509;-73
2021/11/19 04:20:50;;;;;;;22.77;13.25;;;12.40;99.90;;;;;;5054895;28;20593;-73
2021/11/19 04:23:16;;;;;;;19.70;11.23;;;12.40;99.90;;;;;;5066087;28;20037;-74
2021/11/19 04:25:44;;;;;;;22.65;12.40;;;12.40;99.90;;;;;;5049132;28;20503;-73
2021/11/19 04:28:10;;;;;;;18.75;12.40;;;12.40;99.90;;;;;;5065736;28;20076;-73
2021/11/19 04:30:40;;;;;;;21.70;12.35;;;12.40;99.90;;;;;;5064750;28;20157;-73
2021/11/19 04:33:07;;;;;;;19.45;12.05;;;12.50;99.90;;;;;;5065394;28;20044;-73
2021/11/19 04:35:33;;;;;;;27.98;13.00;;;12.50;99.90;;;;;;5065716;28;20060;-73
2021/11/19 04:38:00;;;;;;;19.95;11.68;;;12.50;99.90;;;;;;5065640;28;20052;-73
2021/11/19 04:40:27;;;;;;;21.90;11.90;;;12.50;99.90;;;;;;5065381;28;20403;-73
2021/11/19 04:42:53;;;;;;;19.83;12.95;;;12.50;99.90;;;;;;5049097;28;20041;-73
2021/11/19 04:45:22;;;;;;;21.17;11.80;;;12.40;99.90;;;;;;5048714;28;20772;-73
2021/11/19 04:47:50;;;;;;;20.55;11.13;;;12.50;99.90;;;;;;5048594;28;20075;-73
2021/11/19 04:50:19;;;;;;;19.40;11.02;;;12.50;99.90;;;;;;5050952;28;20044;-73
2021/11/19 04:52:46;;;;;;;22.35;11.77;;;12.40;99.90;;;;;;5065238;28;20052;-73
2021/11/19 04:55:14;;;;;;;20.77;12.07;;;12.40;99.90;;;;;;5048844;28;20376;-73
2021/11/19 04:57:41;;;;;;;22.88;12.07;;;12.40;99.90;;;;;;5048603;28;20453;-73
2021/11/19 05:00:22;;;;;;;22.58;11.90;;;12.40;99.90;;;;;;5048907;28;20056;-73
2021/11/19 05:02:47;;;;;;;25.38;12.40;;;12.40;99.90;;;;;;5061449;28;20512;-73
2021/11/19 05:05:14;;;;;;;21.48;12.50;;;12.40;99.90;;;;;;5049115;28;20115;-73
2021/11/19 05:07:40;;;;;;;21.63;11.15;;;12.40;99.90;;;;;;5065108;28;20131;-73
2021/11/19 05:10:06;;;;;;;17.77;12.35;;;12.40;99.90;;;;;;5031635;28;20056;-73
2021/11/19 05:12:41;;;;;;;18.80;12.35;;;12.40;99.90;;;;;;5031632;28;20383;-73
2021/11/19 05:15:10;;;;;;;22.17;12.70;;;12.40;99.90;;;;;;5065172;28;20530;-74
2021/11/19 05:17:36;;;;;;;23.70;12.38;;;12.40;99.90;;;;;;5065644;28;20403;-74
2021/11/19 05:20:06;;;;;;;23.80;12.77;;;12.40;99.90;;;;;;5076784;28;20036;-73
2021/11/19 05:22:32;;;;;;;21.80;13.07;;;12.40;99.90;;;;;;5059445;28;20044;-73
2021/11/19 05:24:57;;;;;;;24.95;12.70;;;12.40;99.90;;;;;;5069444;28;20056;-73
2021/11/19 05:27:24;;;;;;;21.80;12.27;;;12.50;99.90;;;;;;5052913;28;20080;-74
2021/11/19 05:29:50;;;;;;;20.48;12.45;;;12.50;99.90;;;;;;5038715;28;20391;-74
2021/11/19 05:32:16;;;;;;;20.77;12.60;;;12.50;99.90;;;;;;5052354;28;20043;-73
2021/11/19 05:34:43;;;;;;;17.92;12.02;;;12.50;99.90;;;;;;5061785;28;20053;-73
2021/11/19 05:37:09;;;;;;;23.15;13.15;;;12.50;99.90;;;;;;5040839;28;20263;-73
2021/11/19 05:39:36;;;;;;;18.00;12.32;;;12.40;99.90;;;;;;5051685;28;20517;-73
2021/11/19 05:42:04;;;;;;;20.23;13.13;;;12.50;99.90;;;;;;5052430;28;20442;-73
2021/11/19 05:44:32;;;;;;;22.80;12.77;;;12.50;99.90;;;;;;5051612;28;20052;-73
2021/11/19 05:46:59;;;;;;;19.02;11.82;;;12.50;99.90;;;;;;5068842;28;20053;-73
2021/11/19 05:49:25;;;;;;;21.30;11.70;;;12.40;99.90;;;;;;5042784;28;20040;-72
2021/11/19 05:51:53;;;;;;;23.42;12.45;;;12.40;99.90;;;;;;5064982;28;20036;-74
2021/11/19 05:54:22;;;;;;;21.38;12.85;;;12.50;99.90;;;;;;5089379;28;20047;-73
2021/11/19 05:56:50;;;;;;;20.58;12.25;;;12.40;99.90;;;;;;5073423;28;20239;-73
2021/11/19 05:59:16;;;;;;;17.00;11.63;;;12.40;99.90;;;;;;5075796;28;20041;-73
2021/11/19 06:01:42;;;;;;;19.00;11.85;;;12.40;99.90;;;;;;5053328;28;20052;-73
2021/11/19 06:04:08;;;;;;;25.52;13.18;;;12.40;99.90;;;;;;5070706;28;20055;-73
2021/11/19 06:06:34;;;;;;;24.42;13.48;;;12.40;99.90;;;;;;5049707;28;20044;-73
2021/11/19 06:09:00;;;;;;;21.70;11.82;;;12.40;99.90;;;;;;5053611;28;20052;-73
2021/11/19 06:11:31;;;;;;;19.15;12.55;;;12.40;99.90;;;;;;5053179;28;20380;-73
2021/11/19 06:14:07;;;;;;;28.25;13.02;;;12.40;99.90;;;;;;5053193;28;20044;-73
2021/11/19 06:16:53;;;;;;;24.05;12.20;;;12.40;99.90;;;;;;5069434;28;20048;-73
2021/11/19 06:19:22;;;;;;;19.17;13.50;;;12.30;99.90;;;;;;5070134;28;20114;-73
2021/11/19 06:21:57;;;;;;;24.10;12.93;;;12.30;99.90;;;;;;5068967;28;20068;-73
2021/11/19 06:24:29;;;;;;;22.10;12.73;;;12.40;99.90;;;;;;5074026;28;20495;-72
2021/11/19 06:26:55;;;;;;;22.45;13.35;;;12.30;99.90;;;;;;5051130;28;20055;-73
2021/11/19 06:29:21;;;;;;;25.77;12.70;;;12.30;99.90;;;;;;5057657;28;20042;-73
2021/11/19 06:31:50;;;;;;;22.33;12.65;;;12.40;99.90;;;;;;5072759;28;20040;-73
2021/11/19 06:34:16;;;;;;;20.50;13.13;;;12.40;99.90;;;;;;5068819;28;20047;-73
2021/11/19 06:36:44;;;;;;;20.80;13.45;;;12.30;99.90;;;;;;5027754;28;20045;-73
2021/11/19 06:39:11;;;;;;;22.48;14.07;;;12.30;99.90;;;;;;5065748;28;20056;-74
2021/11/19 06:41:37;;;;;;;26.25;13.90;;;12.40;99.90;;;;;;5069905;28;20056;-73
2021/11/19 06:44:04;;;;;;;25.90;13.10;;;12.30;99.90;;;;;;5072857;28;20036;-73
2021/11/19 06:46:30;;;;;;;27.05;14.13;;;12.40;99.90;;;;;;5074740;28;20142;-73
2021/11/19 06:48:58;;;;;;;25.70;14.63;;;12.40;99.90;;;;;;5054799;28;20056;-73
2021/11/19 06:51:23;;;;;;;21.92;13.43;;;12.40;99.90;;;;;;5070182;28;20040;-72
2021/11/19 06:53:50;;;;;;;23.80;13.63;;;12.40;99.90;;;;;;5069493;28;20048;-72
2021/11/19 06:56:18;;;;;;;24.27;13.77;;;12.40;99.90;;;;;;5074033;28;20079;-72
2021/11/19 06:58:44;;;;;;;24.30;14.10;;;12.30;99.90;;;;;;5080262;28;20456;-72
2021/11/19 07:01:10;;;;;;;22.58;13.30;;;12.40;99.90;;;;;;5059447;28;20387;-72
2021/11/19 07:03:36;;;;;;;19.17;12.80;;;12.40;99.90;;;;;;5066925;28;20041;-72
2021/11/19 07:06:03;;;;;;;27.13;13.80;;;12.40;99.90;;;;;;5068237;28;20139;-72
2021/11/19 07:08:32;;;;;;;24.30;13.70;;;12.40;99.90;;;;;;5052011;28;20059;-72
2021/11/19 07:11:03;;;;;;;30.38;13.45;;;12.40;99.90;;;;;;5070926;28;20049;-72
2021/11/19 07:13:30;;;;;;;21.98;13.30;;;12.40;99.90;;;;;;5066626;28;20135;-72
2021/11/19 07:15:57;;;;;;;23.52;12.77;;;12.30;99.90;;;;;;5052392;28;20040;-73
2021/11/19 07:18:22;;;;;;;20.92;12.25;;;12.40;99.90;;;;;;5061478;28;20399;-72
2021/11/19 07:20:50;;;;;;;24.85;12.70;;;12.30;99.90;;;;;;5079221;28;20107;-72
2021/11/19 07:23:16;;;;;;;24.33;12.63;;;12.30;99.90;;;;;;5074575;28;20040;-72
2021/11/19 07:25:42;;;;;;;21.75;11.95;;;12.30;99.90;;;;;;5075331;28;20490;-72
2021/11/19 07:28:10;;;;;;;19.33;11.88;;;12.30;99.90;;;;;;5039688;28;20056;-72
2021/11/19 07:30:42;;;;;;;20.00;12.02;;;12.30;99.90;;;;;;5066486;28;20032;-73
2021/11/19 07:33:08;;;;;;;23.27;12.35;;;12.30;99.90;;;;;;5061478;28;20339;-71
2021/11/19 07:35:34;;;;;;;21.90;11.05;;;12.30;99.90;;;;;;5067956;28;20510;-72
2021/11/19 07:38:00;;;;;;;25.45;10.98;;;12.30;99.90;;;;;;5060371;28;20123;-71
2021/11/19 07:40:32;;;;;;;19.92;11.02;;;12.30;99.90;;;;;;5052718;28;20128;-72
2021/11/19 07:43:01;;;;;;;17.20;10.85;;;12.30;99.90;;;;;;5068994;28;20053;-72
2021/11/19 07:45:35;;;;;;;21.33;11.45;;;12.30;99.90;;;;;;5057141;28;20108;-72
2021/11/19 07:48:02;;;;;;;22.27;9.75;;;12.30;99.90;;;;;;5042081;28;20050;-71
2021/11/19 07:50:31;;;;;;;20.33;10.40;;;12.30;99.90;;;;;;5065504;28;20066;-72
2021/11/19 07:52:57;;;;;;;17.85;9.98;;;12.30;99.90;;;;;;5082354;28;20044;-71
2021/11/19 07:55:23;;;;;;;17.45;10.57;;;12.30;99.90;;;;;;5065063;28;20051;-72
2021/11/19 07:57:49;;;;;;;16.83;9.52;;;12.30;99.90;;;;;;5080040;28;20222;-72
2021/11/19 08:00:20;;;;;;;20.98;10.25;;;12.40;99.90;;;;;;5061503;28;20412;-72
2021/11/19 08:02:49;;;;;;;16.73;8.75;;;12.30;99.90;;;;;;5070065;28;20078;-73
2021/11/19 08:05:15;;;;;;;20.20;9.05;;;12.30;99.90;;;;;;5061414;28;20434;-73
2021/11/19 08:07:41;;;;;;;17.48;8.25;;;12.40;99.90;;;;;;5053399;28;20120;-74
2021/11/19 08:10:08;;;;;;;16.35;7.80;;;12.40;99.90;;;;;;5071823;28;20454;-72
2021/11/19 08:12:35;;;;;;;19.73;8.68;;;12.40;99.90;;;;;;5047826;28;20044;-72
2021/11/19 08:15:01;;;;;;;17.98;8.32;;;12.40;99.90;;;;;;5064650;28;20041;-72
2021/11/19 08:17:37;;;;;;;15.25;7.82;;;12.30;99.90;;;;;;5052229;28;20040;-71
2021/11/19 08:20:09;;;;;;;23.35;8.32;;;12.40;99.90;;;;;;5069885;28;20044;-71
2021/11/19 08:22:36;;;;;;;17.25;8.05;;;12.40;99.90;;;;;;5079752;28;20105;-71
2021/11/19 08:25:04;;;;;;;21.15;8.07;;;12.40;99.90;;;;;;5067339;28;20062;-72
2021/11/19 08:27:34;;;;;;;15.93;7.32;;;12.40;99.90;;;;;;5077778;28;20070;-71
2021/11/19 08:30:03;;;;;;;18.15;7.95;;;12.50;99.90;;;;;;5050227;28;20051;-71
2021/11/19 08:32:32;;;;;;;21.38;7.25;;;12.40;99.90;;;;;;5053289;28;20036;-72
2021/11/19 08:34:58;;;;;;;19.45;6.95;;;12.40;99.90;;;;;;5059212;28;20048;-72
2021/11/19 08:37:25;;;;;;;22.17;8.30;;;12.50;99.90;;;;;;5052358;28;20051;-71
2021/11/19 08:39:52;;;;;;;20.08;7.07;;;12.50;99.90;;;;;;5074134;28;20454;-71
2021/11/19 08:42:22;;;;;;;18.92;7.18;;;12.50;99.90;;;;;;5052258;28;20062;-72
2021/11/19 08:44:48;;;;;;;15.88;6.60;;;12.50;99.90;;;;;;5071102;28;20044;-72
2021/11/19 08:47:17;;;;;;;17.60;6.30;;;12.50;99.90;;;;;;5062530;28;20058;-71
2021/11/19 08:49:43;;;;;;;19.35;6.45;;;12.50;99.90;;;;;;5050934;28;20047;-73
2021/11/19 08:52:12;;;;;;;16.23;5.65;;;12.60;99.90;;;;;;5066779;28;20551;-72
2021/11/19 08:54:39;;;;;;;19.83;6.10;;;12.60;99.90;;;;;;5062607;28;20106;-71
2021/11/19 08:57:10;;;;;;;18.83;6.38;;;12.60;99.90;;;;;;5050246;28;20518;-71
2021/11/19 08:59:38;;;;;;;20.02;6.68;;;12.60;99.90;;;;;;5068908;28;20081;-71
2021/11/19 09:02:08;;;;;;;16.98;5.80;;;12.60;99.90;;;;;;5064030;28;20068;-71
2021/11/19 09:04:34;;;;;;;13.40;6.38;;;12.70;99.90;;;;;;5055388;28;20048;-72
2021/11/19 09:07:00;;;;;;;12.38;6.07;;;12.70;99.90;;;;;;5054894;28;20044;-71
2021/11/19 09:09:28;;;;;;;17.75;7.05;;;12.70;99.90;;;;;;5041648;28;20089;-71
2021/11/19 09:12:00;;;;;;;13.82;5.70;;;12.70;99.90;;;;;;5069739;28;20594;-71
2021/11/19 09:14:26;;;;;;;18.57;6.00;;;12.70;99.90;;;;;;5052657;28;20037;-71
2021/11/19 09:17:34;;;;;;;19.15;6.47;;;12.70;99.90;;;;;;5071839;28;20285;-71
2021/11/19 09:20:14;;;;;;;12.55;5.05;;;12.80;99.90;;;;;;5072301;28;20055;-72
2021/11/19 09:22:46;;;;;;;11.85;5.50;;;12.80;99.90;;;;;;5056228;28;20056;-71
2021/11/19 09:25:15;;;;;;;18.13;5.72;;;12.80;99.90;;;;;;5066520;28;20040;-71
2021/11/19 09:27:43;;;;;;;12.65;5.28;;;12.80;99.90;;;;;;5056586;28;20051;-71
2021/11/19 09:30:15;;;;;;;13.07;5.38;;;12.90;99.90;;;;;;5049423;28;20057;-71
2021/11/19 09:32:49;;;;;;;11.93;4.72;;;12.90;99.90;;;;;;5049337;28;20044;-71
2021/11/19 09:35:18;;;;;;;14.23;4.90;;;13.00;99.90;;;;;;5068643;28;20476;-71
2021/11/19 09:37:48;;;;;;;14.23;4.78;;;13.00;99.90;;;;;;5053410;28;20386;-71
2021/11/19 09:40:16;;;;;;;16.33;4.72;;;13.00;99.90;;;;;;5057440;28;20084;-72
2021/11/19 09:42:50;;;;;;;17.48;5.50;;;13.10;99.90;;;;;;5064661;28;20047;-72
2021/11/19 09:45:38;;;;;;;14.60;4.75;;;13.10;99.90;;;;;;5081273;28;20040;-72
2021/11/19 09:48:30;;;;;;;13.73;4.38;;;13.10;99.90;;;;;;5057474;28;20057;-72
2021/11/19 09:51:27;;;;;;;10.32;4.43;;;13.10;99.90;;;;;;5051571;28;20071;-72
2021/11/19 09:54:17;;;;;;;13.50;4.75;;;13.20;99.90;;;;;;5058027;28;20040;-72
2021/11/19 09:57:09;;;;;;;13.93;4.35;;;13.20;99.90;;;;;;5058519;28;20101;-72
2021/11/19 09:59:43;;;;;;;13.25;4.05;;;13.10;99.90;;;;;;5069427;28;20044;-72
2021/11/19 10:02:57;;;;;;;13.13;4.30;;;13.10;99.90;;;;;;5069138;28;20741;-73
2021/11/19 10:05:57;;;;;;;11.88;4.32;;;13.10;99.90;;;;;;5060850;28;20041;-72
2021/11/19 10:08:38;;;;;;;10.00;3.92;;;13.10;99.90;;;;;;5060997;28;20044;-72
2021/11/19 10:11:30;;;;;;;15.75;4.20;;;13.10;99.90;;;;;;5075098;28;20084;-72
2021/11/19 10:14:27;;;;;;;10.80;3.92;;;13.10;99.90;;;;;;5052663;28;20045;-72
2021/11/19 10:17:16;;;;;;;15.02;4.32;;;13.10;99.90;;;;;;5079516;28;20048;-72
2021/11/19 10:19:47;;;;;;;14.50;4.85;;;13.20;99.90;;;;;;5073708;28;20079;-72
2021/11/19 10:22:28;;;;;;;16.35;4.93;;;13.10;99.90;;;;;;5076280;28;20079;-72
2021/11/19 10:25:19;;;;;;;13.45;5.55;;;13.10;99.90;;;;;;5063205;28;20043;-72
2021/11/19 10:27:49;;;;;;;10.00;4.20;;;13.10;99.90;;;;;;5078617;28;20040;-72
2021/11/19 10:30:46;;;;;;;10.35;4.10;;;13.10;99.90;;;;;;5075970;28;20597;-72
2021/11/19 10:33:21;;;;;;;13.50;4.57;;;13.20;99.90;;;;;;5068018;28;20127;-71
2021/11/19 10:36:07;;;;;;;12.20;3.90;;;13.10;99.90;;;;;;5069636;28;20079;-71
2021/11/19 10:38:41;;;;;;;17.35;4.32;;;13.10;99.90;;;;;;5050831;28;20068;-72
2021/11/19 10:41:17;;;;;;;14.23;3.83;;;13.20;99.90;;;;;;5056161;28;20079;-72
2021/11/19 10:44:02;;;;;;;20.13;5.07;;;13.20;99.90;;;;;;5072338;28;20056;-72
2021/11/19 10:46:56;;;;;;;10.68;4.50;;;13.10;99.90;;;;;;5074927;28;20126;-72
2021/11/19 10:49:34;;;;;;;14.55;4.47;;;13.20;99.90;;;;;;5050947;28;20028;-72
2021/11/19 10:52:09;;;;;;;12.65;3.80;;;13.20;99.90;;;;;;5073348;28;20040;-72
2021/11/19 10:55:03;;;;;;;12.70;3.95;;;13.20;99.90;;;;;;5077462;28;20048;-72
2021/11/19 10:58:11;;;;;;;13.25;4.18;;;13.20;99.90;;;;;;5077801;28;20943;-71
2021/11/19 11:01:00;;;;;;;14.55;5.05;;;13.20;99.90;;;;;;5060197;28;20068;-72
2021/11/19 11:04:09;;;;;;;10.32;4.03;;;13.20;99.90;;;;;;5050704;28;20497;-72
2021/11/19 11:07:08;;;;;;;15.40;4.60;;;13.20;99.90;;;;;;5008930;28;20049;-72
2021/11/19 11:09:43;;;;;;;12.15;4.13;;;13.20;99.90;;;;;;5057931;28;20113;-71
2021/11/19 11:12:12;;;;;;;12.85;4.38;;;13.20;99.90;;;;;;5070824;28;20049;-72
2021/11/19 11:14:44;;;;;;;13.80;4.13;;;13.30;99.90;;;;;;5072603;28;20040;-72
2021/11/19 11:17:33;;;;;;;18.00;4.18;;;13.20;99.90;;;;;;5069882;28;20403;-72
2021/11/19 11:20:02;;;;;;;11.05;3.45;;;13.30;99.90;;;;;;5067737;28;20538;-72
2021/11/19 11:22:32;;;;;;;12.32;3.95;;;13.30;99.90;;;;;;5073610;28;20040;-72
2021/11/19 11:25:05;;;;;;;11.40;3.40;;;13.30;99.90;;;;;;5055414;28;20044;-71
2021/11/19 11:27:53;;;;;;;14.30;4.03;;;13.30;99.90;;;;;;5072925;28;20132;-72
2021/11/19 11:30:24;;;;;;;15.20;3.70;;;13.30;99.90;;;;;;5076907;28;20049;-72
2021/11/19 11:32:50;;;;;;;12.30;4.10;;;13.30;99.90;;;;;;5067281;28;20889;-73
2021/11/19 11:35:37;;;;;;;13.95;4.13;;;13.30;99.90;;;;;;5067316;28;20136;-72
2021/11/19 11:38:06;;;;;;;15.27;3.92;;;13.30;99.90;;;;;;5072511;28;20045;-72
2021/11/19 11:40:41;;;;;;;10.45;3.60;;;13.30;99.90;;;;;;5076811;28;20130;-72
2021/11/19 11:43:33;;;;;;;14.93;3.83;;;13.30;99.90;;;;;;5053514;28;20147;-72
2021/11/19 11:46:22;;;;;;;12.43;3.65;;;13.30;99.90;;;;;;5061037;28;20040;-72
2021/11/19 11:49:17;;;;;;;10.52;3.75;;;13.30;99.90;;;;;;5063202;28;20086;-72
2021/11/19 11:52:08;;;;;;;11.48;3.35;;;13.30;99.90;;;;;;5059292;28;20048;-72
2021/11/19 11:54:53;;;;;;;11.18;3.33;;;13.30;99.90;;;;;;5075279;28;20044;-73
2021/11/19 11:57:28;;;;;;;12.30;3.80;;;13.30;99.90;;;;;;5073056;28;20803;-72
2021/11/19 11:59:59;;;;;;;13.82;3.80;;;13.30;99.90;;;;;;5073703;28;20044;-72
2021/11/19 12:02:37;;;;;;;10.82;3.97;;;13.30;99.90;;;;;;5080079;28;20036;-72
2021/11/19 12:05:27;;;;;;;10.45;3.60;;;13.30;99.90;;;;;;5071755;28;20368;-72
2021/11/19 12:08:16;;;;;;;9.95;3.17;;;13.30;99.90;;;;;;5071809;28;20139;-72
2021/11/19 12:11:03;;;;;;;11.90;3.75;;;13.30;99.90;;;;;;5072806;28;20499;-72
2021/11/19 12:13:40;;;;;;;11.60;3.58;;;13.30;99.90;;;;;;5054193;28;20506;-72
2021/11/19 12:16:22;;;;;;;16.48;4.55;;;13.30;99.90;;;;;;5054017;28;20049;-72
2021/11/19 12:19:04;;;;;;;13.85;4.18;;;13.40;99.90;;;;;;5074970;28;20092;-72
2021/11/19 12:21:48;;;;;;;13.27;3.80;;;13.40;99.90;;;;;;5075455;28;20458;-72
2021/11/19 12:24:53;;;;;;;13.50;3.97;;;13.40;99.90;;;;;;5072271;28;20123;-72
2021/11/19 12:27:41;;;;;;;11.40;3.20;;;13.40;99.90;;;;;;5067764;28;20398;-72
2021/11/19 12:30:29;;;;;;;12.23;3.17;;;13.40;99.90;;;;;;5062301;28;20056;-72
2021/11/19 12:33:17;;;;;;;12.40;3.47;;;13.50;99.90;;;;;;5074969;28;20620;-72
2021/11/19 12:36:02;;;;;;;12.45;3.42;;;13.50;99.90;;;;;;5050989;28;20387;-72
2021/11/19 12:38:32;;;;;;;12.43;3.60;;;13.40;99.90;;;;;;5087731;28;20059;-72
2021/11/19 12:41:22;;;;;;;13.27;3.63;;;13.40;99.90;;;;;;5065704;28;20521;-71
2021/11/19 12:43:54;;;;;;;12.88;3.83;;;13.40;99.90;;;;;;5049775;28;20052;-73
2021/11/19 12:46:39;;;;;;;9.52;2.88;;;13.50;99.90;;;;;;5083543;28;20542;-73
2021/11/19 12:49:33;;;;;;;12.35;3.10;;;13.40;99.90;;;;;;5067036;28;20044;-72
2021/11/19 12:52:20;;;;;;;10.38;2.80;;;13.40;99.90;;;;;;5062163;28;20131;-72
2021/11/19 12:55:19;;;;;;;10.88;3.08;;;13.40;99.90;;;;;;5080287;28;20059;-73
2021/11/19 12:58:12;;;;;;;8.45;3.13;;;13.40;99.90;;;;;;5066009;28;20052;-72
2021/11/19 13:00:55;;;;;;;11.18;3.22;;;13.30;99.90;;;;;;5066491;28;20547;-73